Koenton, Alabama
Current Conditions -  °F | °C
As of 3:58 AM on Friday 31 Oct 2014 (Local Time) from KMEI Reporting Station
Few Clouds Few Clouds  
Wind Chill: 37°   Ceiling: Unl
Heat Index: 40°   Visibility: 10mi
Dew Point: 38°   Wind: 5mph
Humidity: 93%   Direction: 190°S
Pressure: 30.01"   Gusts: NA
Location:  31.6272°N, 88.354°W
Report Text: KMEI 310858Z AUTO 19004KT 10SM FEW085 04/03 A3001 RMK AO2 SLP161 T00440033 58012
Loading
Personal Weather Stations






























Interactive Weather Map
Tropical Storm Tracking
New forecast layout! Learn more

10-Day Weather Forecast

Advertisements
Track Severe Weather on mobile